Huvudsida
METAR-TAF:

METAR-TAF

Flygplatser :

Crotone, Italien

latitud: 39-00N, longitud: 017-04E, höjd: 155 m

Aktuellt väderrapport

Denna rapport gjordes för 31 minuter sedan, klockan 13:50 UTC
Vind 16 kt från nord/nordost, varierande mellan nord och nordost
Temperatur 30°C
Fuktighet 43%
Tryck 1017 hPa
Sikt 10 km eller mer
Få moln på en höjd av 2000 ft

METAR: LIBC 251350Z 02016KT 350V050 9999 FEW020 30/16 Q1017

Tid: 16:21 (14:21 UTC)

Väderprognos

Denna rapport gjordes för 3 timmar och 21 minuter sedan, klockan 11:00 UTC
Prognos gäller från 25 kl. 12 UTC till 26 kl. 12 UTC
Vind 16 kt från nord
Sikt 10 km eller mer
Inga moln under 1 500 m eller inga cumulonimbus
Blir
från 25 kl. 18 UTC till 25 kl. 21 UTC
Vind 6 kt från nord/nordost
Blir
från 26 kl. 08 UTC till 26 kl. 10 UTC
Vind 16 kt från nord/nordost

TAF: LIBC 251100Z 2512/2612 01016KT CAVOK BECMG 2518/2521 02006KT BECMG 2608/2610 02016KT

Aktuella väderrapporter och prognoser från 4000 flygplatser (METAR- och TAF-rapporter).

De tillgängliga stationerna syns som gula och röda prickar på kartan.

För musen över prickarna för att se namnen på stationerna.

Klicka sedan för att få väderrapporter och prognoser.

För att ändra kartan: Klicka på de gröna knapparna med ett svart kors på för att zooma in; den gröna knappen med ett streck på för att zooma ut; eller på de gröna pilarna för angränsande kartor.


METAR-TAF: